CheckWX is a tool to help pilots better visualize weather data.  It is not intended as a substitute for an official pre-flight weather briefing.

11:56:14 UTC

W13 METAR
Eagle's Nest Airport
Waynesboro, Virginia, USA
Current

21 mins ago

KW13 241135Z AUTO 21004KT 10SM CLR 00/M05 A3004 RMK AO1 T10041050
Observed
Feb-24 @ 11:35 UTC
Wind
  • 210° at 4 KTS
Visibility
10 SM
Flight Rules
VFR
Cloud Levels
  • Clear skies
Temperature
-0°C / 32°F
Dewpoint
-5°C / 23°F
Humidity
69%
Altimeter
30.04" Hg
Pressure
1017.32 hPa
Previous

41 mins ago

KW13 241115Z AUTO 00000KT 10SM CLR M01/M05 A3003 RMK AO1 T10061051
Observed
Feb-24 @ 11:15 UTC
Visibility
10 SM
Flight Rules
VFR
Cloud Levels
  • Clear skies
Temperature
-1°C / 30°F
Dewpoint
-5°C / 23°F
Humidity
75%
Altimeter
30.03" Hg
Pressure
1016.92 hPa
Previous

1 hour ago

KW13 241055Z AUTO 00000KT 10SM CLR 00/M05 A3003 RMK AO1 T10051053
Observed
Feb-24 @ 10:55 UTC
Visibility
10 SM
Flight Rules
VFR
Cloud Levels
  • Clear skies
Temperature
-1°C / 30°F
Dewpoint
-5°C / 23°F
Humidity
75%
Altimeter
30.03" Hg
Pressure
1016.92 hPa